sensor_id;sensor_type;location;lat;lon;timestamp;pressure;altitude;pressure_sealevel;temperature;humidity
64115;BME280;62188;35.640;139.748;2023-02-02T00:01:47;101651.41;;;10.31;17.15
64115;BME280;62188;35.640;139.748;2023-02-02T00:04:16;101658.69;;;10.36;17.45
64115;BME280;62188;35.640;139.748;2023-02-02T00:06:37;101648.97;;;10.40;17.16
64115;BME280;62188;35.640;139.748;2023-02-02T00:09:03;101654.57;;;10.58;16.89
64115;BME280;62188;35.640;139.748;2023-02-02T00:11:28;101675.60;;;10.28;17.07
64115;BME280;62188;35.640;139.748;2023-02-02T00:13:55;101664.35;;;10.29;16.99
64115;BME280;62188;35.640;139.748;2023-02-02T00:16:34;101667.45;;;10.19;17.12
64115;BME280;62188;35.640;139.748;2023-02-02T00:18:46;101679.74;;;10.19;16.82
64115;BME280;62188;35.640;139.748;2023-02-02T00:21:12;101681.56;;;10.39;17.04
64115;BME280;62188;35.640;139.748;2023-02-02T00:23:37;101679.31;;;10.63;17.12
64115;BME280;62188;35.640;139.748;2023-02-02T00:26:03;101671.95;;;10.37;16.97
64115;BME280;62188;35.640;139.748;2023-02-02T00:28:29;101676.61;;;10.64;17.24
64115;BME280;62188;35.640;139.748;2023-02-02T00:30:55;101686.54;;;10.66;16.80
64115;BME280;62188;35.640;139.748;2023-02-02T00:33:20;101681.27;;;10.99;16.54
64115;BME280;62188;35.640;139.748;2023-02-02T00:35:46;101681.16;;;11.10;16.10
64115;BME280;62188;35.640;139.748;2023-02-02T00:38:12;101677.72;;;11.36;15.80
64115;BME280;62188;35.640;139.748;2023-02-02T00:40:38;101680.85;;;11.68;15.39
64115;BME280;62188;35.640;139.748;2023-02-02T00:43:03;101691.21;;;11.99;15.62
64115;BME280;62188;35.640;139.748;2023-02-02T00:45:29;101681.18;;;11.98;15.15
64115;BME280;62188;35.640;139.748;2023-02-02T00:47:55;101685.91;;;11.63;15.29
64115;BME280;62188;35.640;139.748;2023-02-02T00:50:21;101665.06;;;12.22;15.02
64115;BME280;62188;35.640;139.748;2023-02-02T00:52:47;101688.54;;;11.88;14.87
64115;BME280;62188;35.640;139.748;2023-02-02T00:55:13;101675.19;;;12.17;14.79
64115;BME280;62188;35.640;139.748;2023-02-02T00:57:38;101684.05;;;12.06;14.93
64115;BME280;62188;35.640;139.748;2023-02-02T01:00:07;101691.48;;;11.93;14.62
64115;BME280;62188;35.640;139.748;2023-02-02T01:02:30;101699.72;;;12.24;14.65
64115;BME280;62188;35.640;139.748;2023-02-02T01:04:55;101707.82;;;12.05;14.63
64115;BME280;62188;35.640;139.748;2023-02-02T01:07:21;101710.15;;;12.21;14.37
64115;BME280;62188;35.640;139.748;2023-02-02T01:09:46;101715.63;;;12.59;14.41
64115;BME280;62188;35.640;139.748;2023-02-02T01:12:13;101717.13;;;12.92;14.50
64115;BME280;62188;35.640;139.748;2023-02-02T01:14:38;101706.37;;;13.16;14.30
64115;BME280;62188;35.640;139.748;2023-02-02T01:17:04;101720.64;;;13.30;13.82
64115;BME280;62188;35.640;139.748;2023-02-02T01:19:29;101700.67;;;13.27;13.56
64115;BME280;62188;35.640;139.748;2023-02-02T01:21:55;101701.15;;;13.35;13.32
64115;BME280;62188;35.640;139.748;2023-02-02T01:24:21;101696.97;;;12.77;13.65
64115;BME280;62188;35.640;139.748;2023-02-02T01:26:47;101703.79;;;12.90;13.62
64115;BME280;62188;35.640;139.748;2023-02-02T01:29:13;101696.29;;;13.14;13.62
64115;BME280;62188;35.640;139.748;2023-02-02T01:31:39;101698.29;;;13.19;13.87
64115;BME280;62188;35.640;139.748;2023-02-02T01:34:04;101700.27;;;13.69;13.71
64115;BME280;62188;35.640;139.748;2023-02-02T01:36:29;101692.94;;;12.99;13.76
64115;BME280;62188;35.640;139.748;2023-02-02T01:38:55;101692.10;;;13.27;13.44
64115;BME280;62188;35.640;139.748;2023-02-02T01:41:23;101693.95;;;13.60;13.78
64115;BME280;62188;35.640;139.748;2023-02-02T01:43:53;101685.31;;;13.71;13.53
64115;BME280;62188;35.640;139.748;2023-02-02T01:46:13;101679.02;;;14.02;13.72
64115;BME280;62188;35.640;139.748;2023-02-02T01:48:42;101675.68;;;14.28;13.23
64115;BME280;62188;35.640;139.748;2023-02-02T01:51:06;101666.37;;;14.02;12.88
64115;BME280;62188;35.640;139.748;2023-02-02T01:53:30;101674.09;;;14.04;12.71
64115;BME280;62188;35.640;139.748;2023-02-02T01:55:55;101659.70;;;13.37;12.93
64115;BME280;62188;35.640;139.748;2023-02-02T01:58:23;101662.01;;;13.21;13.21
64115;BME280;62188;35.640;139.748;2023-02-02T02:00:47;101676.31;;;13.28;13.22
64115;BME280;62188;35.640;139.748;2023-02-02T02:03:14;101672.90;;;13.34;12.97
64115;BME280;62188;35.640;139.748;2023-02-02T02:05:42;101665.63;;;12.57;13.27
64115;BME280;62188;35.640;139.748;2023-02-02T02:08:11;101665.52;;;12.83;13.50
64115;BME280;62188;35.640;139.748;2023-02-02T02:10:30;101670.29;;;12.33;13.39
64115;BME280;62188;35.640;139.748;2023-02-02T02:12:55;101674.71;;;12.64;13.69
64115;BME280;62188;35.640;139.748;2023-02-02T02:15:21;101677.96;;;12.37;13.72
64115;BME280;62188;35.640;139.748;2023-02-02T02:17:57;101667.96;;;12.45;13.66
64115;BME280;62188;35.640;139.748;2023-02-02T02:20:27;101660.30;;;12.09;13.80
64115;BME280;62188;35.640;139.748;2023-02-02T02:22:49;101668.12;;;11.95;14.01
64115;BME280;62188;35.640;139.748;2023-02-02T02:25:18;101663.45;;;12.45;14.29
64115;BME280;62188;35.640;139.748;2023-02-02T02:27:41;101659.07;;;12.12;13.86
64115;BME280;62188;35.640;139.748;2023-02-02T02:32:26;101644.04;;;12.33;13.88
64115;BME280;62188;35.640;139.748;2023-02-02T02:34:53;101635.50;;;12.44;13.74
64115;BME280;62188;35.640;139.748;2023-02-02T02:37:18;101636.04;;;11.86;14.00
64115;BME280;62188;35.640;139.748;2023-02-02T02:39:41;101632.86;;;12.04;14.30
64115;BME280;62188;35.640;139.748;2023-02-02T02:42:08;101628.50;;;12.15;14.41
64115;BME280;62188;35.640;139.748;2023-02-02T02:44:30;101624.48;;;11.99;14.35
64115;BME280;62188;35.640;139.748;2023-02-02T02:46:55;101623.11;;;12.08;14.35
64115;BME280;62188;35.640;139.748;2023-02-02T02:49:21;101618.81;;;12.34;14.20
64115;BME280;62188;35.640;139.748;2023-02-02T02:51:48;101612.25;;;12.20;14.24
64115;BME280;62188;35.640;139.748;2023-02-02T02:54:13;101601.73;;;12.02;14.14
64115;BME280;62188;35.640;139.748;2023-02-02T02:56:46;101605.55;;;12.29;13.98
64115;BME280;62188;35.640;139.748;2023-02-02T02:59:10;101598.53;;;12.25;14.17
64115;BME280;62188;35.640;139.748;2023-02-02T03:01:32;101592.54;;;12.44;14.29
64115;BME280;62188;35.640;139.748;2023-02-02T03:04:07;101596.45;;;12.50;14.11
64115;BME280;62188;35.640;139.748;2023-02-02T03:06:25;101591.91;;;12.26;14.19
64115;BME280;62188;35.640;139.748;2023-02-02T03:08:51;101583.17;;;12.47;14.20
64115;BME280;62188;35.640;139.748;2023-02-02T03:11:13;101588.21;;;12.19;13.83
64115;BME280;62188;35.640;139.748;2023-02-02T03:13:39;101582.04;;;12.15;13.81
64115;BME280;62188;35.640;139.748;2023-02-02T03:16:04;101572.83;;;12.13;13.80
64115;BME280;62188;35.640;139.748;2023-02-02T03:18:31;101574.05;;;12.08;13.88
64115;BME280;62188;35.640;139.748;2023-02-02T03:20:55;101567.25;;;12.36;14.06
64115;BME280;62188;35.640;139.748;2023-02-02T03:23:21;101570.53;;;12.14;13.96
64115;BME280;62188;35.640;139.748;2023-02-02T03:25:47;101565.17;;;11.87;13.75
64115;BME280;62188;35.640;139.748;2023-02-02T03:28:12;101554.31;;;12.04;13.81
64115;BME280;62188;35.640;139.748;2023-02-02T03:30:39;101555.81;;;12.08;14.20
64115;BME280;62188;35.640;139.748;2023-02-02T03:33:04;101541.83;;;12.18;14.10
64115;BME280;62188;35.640;139.748;2023-02-02T03:35:30;101549.43;;;12.08;14.04
64115;BME280;62188;35.640;139.748;2023-02-02T03:37:55;101542.09;;;12.14;14.35
64115;BME280;62188;35.640;139.748;2023-02-02T03:40:21;101544.29;;;12.23;14.09
64115;BME280;62188;35.640;139.748;2023-02-02T03:42:47;101538.91;;;12.19;13.75
64115;BME280;62188;35.640;139.748;2023-02-02T03:45:12;101539.44;;;12.32;13.99
64115;BME280;62188;35.640;139.748;2023-02-02T03:47:38;101518.93;;;12.31;13.08
64115;BME280;62188;35.640;139.748;2023-02-02T03:50:04;101525.28;;;12.08;13.30
64115;BME280;62188;35.640;139.748;2023-02-02T03:52:29;101520.37;;;11.98;13.06
64115;BME280;62188;35.640;139.748;2023-02-02T03:54:55;101528.42;;;12.02;12.94
64115;BME280;62188;35.640;139.748;2023-02-02T03:57:21;101511.99;;;12.13;13.24
64115;BME280;62188;35.640;139.748;2023-02-02T03:59:46;101520.59;;;12.14;13.36
64115;BME280;62188;35.640;139.748;2023-02-02T04:02:12;101518.58;;;12.37;13.53
64115;BME280;62188;35.640;139.748;2023-02-02T04:04:38;101513.86;;;12.59;13.61
64115;BME280;62188;35.640;139.748;2023-02-02T04:07:04;101510.87;;;12.37;13.25
64115;BME280;62188;35.640;139.748;2023-02-02T04:09:30;101519.26;;;11.80;13.65
64115;BME280;62188;35.640;139.748;2023-02-02T04:11:55;101521.48;;;12.37;13.94
64115;BME280;62188;35.640;139.748;2023-02-02T04:14:21;101514.12;;;12.09;13.84
64115;BME280;62188;35.640;139.748;2023-02-02T04:16:47;101518.40;;;11.69;14.01
64115;BME280;62188;35.640;139.748;2023-02-02T04:19:13;101518.32;;;12.10;14.24
64115;BME280;62188;35.640;139.748;2023-02-02T04:21:39;101521.56;;;11.97;14.12
64115;BME280;62188;35.640;139.748;2023-02-02T04:24:04;101523.62;;;12.27;13.97
64115;BME280;62188;35.640;139.748;2023-02-02T04:26:30;101528.24;;;12.24;13.88
64115;BME280;62188;35.640;139.748;2023-02-02T04:28:55;101522.56;;;12.27;14.18
64115;BME280;62188;35.640;139.748;2023-02-02T04:31:21;101523.34;;;12.43;14.34
64115;BME280;62188;35.640;139.748;2023-02-02T04:33:47;101531.13;;;12.58;14.54
64115;BME280;62188;35.640;139.748;2023-02-02T04:36:13;101529.99;;;12.49;14.46
64115;BME280;62188;35.640;139.748;2023-02-02T04:38:39;101530.79;;;12.66;14.55
64115;BME280;62188;35.640;139.748;2023-02-02T04:41:07;101528.58;;;12.38;13.60
64115;BME280;62188;35.640;139.748;2023-02-02T04:43:30;101527.45;;;12.03;13.70
64115;BME280;62188;35.640;139.748;2023-02-02T04:45:56;101531.88;;;12.07;13.83
64115;BME280;62188;35.640;139.748;2023-02-02T04:48:21;101528.17;;;12.17;13.98
64115;BME280;62188;35.640;139.748;2023-02-02T04:50:47;101524.04;;;12.53;13.79
64115;BME280;62188;35.640;139.748;2023-02-02T04:53:12;101531.64;;;12.57;13.73
64115;BME280;62188;35.640;139.748;2023-02-02T04:55:38;101539.07;;;12.39;13.75
64115;BME280;62188;35.640;139.748;2023-02-02T04:58:06;101538.65;;;12.63;13.60
64115;BME280;62188;35.640;139.748;2023-02-02T05:00:30;101548.90;;;12.58;13.54
64115;BME280;62188;35.640;139.748;2023-02-02T05:02:56;101549.77;;;12.62;13.64
64115;BME280;62188;35.640;139.748;2023-02-02T05:05:21;101536.38;;;12.75;13.41
64115;BME280;62188;35.640;139.748;2023-02-02T05:07:47;101545.91;;;12.23;13.20
64115;BME280;62188;35.640;139.748;2023-02-02T05:10:13;101538.27;;;12.05;13.21
64115;BME280;62188;35.640;139.748;2023-02-02T05:12:38;101549.21;;;12.28;13.44
64115;BME280;62188;35.640;139.748;2023-02-02T05:15:05;101547.55;;;12.57;13.43
64115;BME280;62188;35.640;139.748;2023-02-02T05:17:30;101552.65;;;12.12;13.20
64115;BME280;62188;35.640;139.748;2023-02-02T05:19:56;101562.92;;;12.19;13.73
64115;BME280;62188;35.640;139.748;2023-02-02T05:22:22;101554.85;;;12.56;13.81
64115;BME280;62188;35.640;139.748;2023-02-02T05:24:47;101557.98;;;12.42;13.70
64115;BME280;62188;35.640;139.748;2023-02-02T05:27:13;101557.61;;;12.65;13.38
64115;BME280;62188;35.640;139.748;2023-02-02T05:29:39;101562.18;;;12.51;13.39
64115;BME280;62188;35.640;139.748;2023-02-02T05:32:05;101559.23;;;12.62;13.44
64115;BME280;62188;35.640;139.748;2023-02-02T05:34:30;101569.71;;;12.53;13.21
64115;BME280;62188;35.640;139.748;2023-02-02T05:36:56;101563.45;;;12.47;13.13
64115;BME280;62188;35.640;139.748;2023-02-02T05:39:22;101556.95;;;12.63;13.19
64115;BME280;62188;35.640;139.748;2023-02-02T05:41:48;101542.64;;;12.41;13.30
64115;BME280;62188;35.640;139.748;2023-02-02T05:44:14;101548.73;;;12.57;13.60
64115;BME280;62188;35.640;139.748;2023-02-02T05:46:39;101551.24;;;12.74;13.77
64115;BME280;62188;35.640;139.748;2023-02-02T05:49:04;101554.57;;;12.87;13.58
64115;BME280;62188;35.640;139.748;2023-02-02T05:51:33;101563.77;;;12.70;13.83
64115;BME280;62188;35.640;139.748;2023-02-02T05:53:56;101565.74;;;12.99;13.55
64115;BME280;62188;35.640;139.748;2023-02-02T05:56:23;101577.82;;;13.02;13.48
64115;BME280;62188;35.640;139.748;2023-02-02T05:58:47;101596.80;;;12.81;13.34
64115;BME280;62188;35.640;139.748;2023-02-02T06:01:13;101591.21;;;12.47;13.27
64115;BME280;62188;35.640;139.748;2023-02-02T06:03:39;101592.59;;;12.36;13.31
64115;BME280;62188;35.640;139.748;2023-02-02T06:06:04;101600.11;;;12.29;13.37
64115;BME280;62188;35.640;139.748;2023-02-02T06:08:29;101604.45;;;12.70;13.37
64115;BME280;62188;35.640;139.748;2023-02-02T06:10:55;101605.31;;;12.38;13.54
64115;BME280;62188;35.640;139.748;2023-02-02T06:13:21;101619.80;;;12.30;13.51
64115;BME280;62188;35.640;139.748;2023-02-02T06:15:46;101623.35;;;12.30;13.56
64115;BME280;62188;35.640;139.748;2023-02-02T06:18:12;101635.20;;;12.36;13.65
64115;BME280;62188;35.640;139.748;2023-02-02T06:20:38;101641.54;;;12.73;14.23
64115;BME280;62188;35.640;139.748;2023-02-02T06:23:04;101640.04;;;12.49;14.04
64115;BME280;62188;35.640;139.748;2023-02-02T06:25:30;101620.97;;;12.60;14.22
64115;BME280;62188;35.640;139.748;2023-02-02T06:27:56;101618.95;;;12.65;14.20
64115;BME280;62188;35.640;139.748;2023-02-02T06:30:21;101629.63;;;12.52;14.40
64115;BME280;62188;35.640;139.748;2023-02-02T06:32:46;101618.52;;;12.94;14.01
64115;BME280;62188;35.640;139.748;2023-02-02T06:35:13;101614.60;;;12.58;14.73
64115;BME280;62188;35.640;139.748;2023-02-02T06:37:38;101614.56;;;12.52;13.92
64115;BME280;62188;35.640;139.748;2023-02-02T06:40:05;101619.52;;;12.44;13.81
64115;BME280;62188;35.640;139.748;2023-02-02T06:42:29;101630.02;;;12.39;14.01
64115;BME280;62188;35.640;139.748;2023-02-02T06:44:55;101616.40;;;12.42;14.30
64115;BME280;62188;35.640;139.748;2023-02-02T06:47:21;101611.56;;;12.25;13.99
64115;BME280;62188;35.640;139.748;2023-02-02T06:49:47;101611.38;;;12.23;14.03
64115;BME280;62188;35.640;139.748;2023-02-02T06:52:12;101612.80;;;12.22;14.05
64115;BME280;62188;35.640;139.748;2023-02-02T06:54:38;101618.37;;;12.34;14.16
64115;BME280;62188;35.640;139.748;2023-02-02T06:57:03;101617.70;;;12.44;14.20
64115;BME280;62188;35.640;139.748;2023-02-02T06:59:30;101616.74;;;12.11;13.84
64115;BME280;62188;35.640;139.748;2023-02-02T07:01:55;101628.70;;;12.39;14.05
64115;BME280;62188;35.640;139.748;2023-02-02T07:04:20;101640.29;;;12.23;14.14
64115;BME280;62188;35.640;139.748;2023-02-02T07:06:46;101653.45;;;12.16;14.12
64115;BME280;62188;35.640;139.748;2023-02-02T07:09:11;101655.92;;;12.15;14.00
64115;BME280;62188;35.640;139.748;2023-02-02T07:11:37;101663.34;;;11.86;13.90
64115;BME280;62188;35.640;139.748;2023-02-02T07:14:03;101669.69;;;11.99;13.85
64115;BME280;62188;35.640;139.748;2023-02-02T07:16:29;101668.26;;;11.74;13.87
64115;BME280;62188;35.640;139.748;2023-02-02T07:18:55;101679.55;;;11.72;14.18
64115;BME280;62188;35.640;139.748;2023-02-02T07:21:23;101691.03;;;11.84;14.41
64115;BME280;62188;35.640;139.748;2023-02-02T07:23:46;101693.69;;;11.90;14.20
64115;BME280;62188;35.640;139.748;2023-02-02T07:26:13;101687.06;;;11.96;14.38
64115;BME280;62188;35.640;139.748;2023-02-02T07:28:38;101690.81;;;11.72;14.03
64115;BME280;62188;35.640;139.748;2023-02-02T07:31:13;101699.11;;;12.01;14.28
64115;BME280;62188;35.640;139.748;2023-02-02T07:33:29;101695.24;;;12.03;14.22
64115;BME280;62188;35.640;139.748;2023-02-02T07:35:54;101701.57;;;12.09;14.03
64115;BME280;62188;35.640;139.748;2023-02-02T07:38:21;101703.16;;;12.03;14.13
64115;BME280;62188;35.640;139.748;2023-02-02T07:40:46;101706.27;;;12.07;14.04
64115;BME280;62188;35.640;139.748;2023-02-02T07:43:18;101712.45;;;11.74;14.06
64115;BME280;62188;35.640;139.748;2023-02-02T07:45:38;101724.23;;;11.92;14.09
64115;BME280;62188;35.640;139.748;2023-02-02T07:48:03;101736.96;;;11.76;13.87
64115;BME280;62188;35.640;139.748;2023-02-02T07:50:30;101736.34;;;11.72;14.07
64115;BME280;62188;35.640;139.748;2023-02-02T07:52:55;101732.40;;;11.83;14.21
64115;BME280;62188;35.640;139.748;2023-02-02T07:55:20;101733.55;;;11.86;14.13
64115;BME280;62188;35.640;139.748;2023-02-02T07:57:46;101741.24;;;11.82;14.09
64115;BME280;62188;35.640;139.748;2023-02-02T08:00:13;101745.93;;;11.69;14.21
64115;BME280;62188;35.640;139.748;2023-02-02T08:02:38;101749.59;;;11.70;14.25
64115;BME280;62188;35.640;139.748;2023-02-02T08:05:03;101754.25;;;11.77;14.25
64115;BME280;62188;35.640;139.748;2023-02-02T08:07:29;101758.22;;;11.84;14.39
64115;BME280;62188;35.640;139.748;2023-02-02T08:09:55;101754.29;;;11.83;14.34
64115;BME280;62188;35.640;139.748;2023-02-02T08:12:23;101757.88;;;11.88;14.28
64115;BME280;62188;35.640;139.748;2023-02-02T08:14:47;101760.76;;;11.71;14.08
64115;BME280;62188;35.640;139.748;2023-02-02T08:17:12;101766.34;;;11.65;14.20
64115;BME280;62188;35.640;139.748;2023-02-02T08:19:37;101761.47;;;11.68;14.33
64115;BME280;62188;35.640;139.748;2023-02-02T08:22:04;101760.36;;;11.37;14.32
64115;BME280;62188;35.640;139.748;2023-02-02T08:24:29;101768.29;;;11.43;14.39
64115;BME280;62188;35.640;139.748;2023-02-02T08:26:55;101766.94;;;11.36;14.17
64115;BME280;62188;35.640;139.748;2023-02-02T08:29:21;101764.97;;;11.35;14.60
64115;BME280;62188;35.640;139.748;2023-02-02T08:31:47;101766.42;;;11.51;14.49
64115;BME280;62188;35.640;139.748;2023-02-02T08:34:13;101768.94;;;11.57;14.69
64115;BME280;62188;35.640;139.748;2023-02-02T08:36:38;101774.96;;;11.27;14.51
64115;BME280;62188;35.640;139.748;2023-02-02T08:39:05;101779.39;;;11.18;14.52
64115;BME280;62188;35.640;139.748;2023-02-02T08:41:30;101778.66;;;10.95;14.67
64115;BME280;62188;35.640;139.748;2023-02-02T08:43:55;101782.30;;;10.81;14.84
64115;BME280;62188;35.640;139.748;2023-02-02T08:46:21;101789.34;;;10.85;14.79
64115;BME280;62188;35.640;139.748;2023-02-02T08:48:47;101787.83;;;10.59;14.79
64115;BME280;62188;35.640;139.748;2023-02-02T08:51:14;101791.23;;;10.62;14.81
64115;BME280;62188;35.640;139.748;2023-02-02T08:53:39;101787.15;;;10.60;14.80
64115;BME280;62188;35.640;139.748;2023-02-02T08:56:08;101782.39;;;10.97;14.82
64115;BME280;62188;35.640;139.748;2023-02-02T08:58:30;101799.40;;;10.85;14.77
64115;BME280;62188;35.640;139.748;2023-02-02T09:03:21;101812.86;;;10.85;14.77
64115;BME280;62188;35.640;139.748;2023-02-02T09:05:47;101804.51;;;10.93;14.72
64115;BME280;62188;35.640;139.748;2023-02-02T09:08:13;101824.50;;;10.82;14.88
64115;BME280;62188;35.640;139.748;2023-02-02T09:10:38;101822.96;;;10.93;14.97
64115;BME280;62188;35.640;139.748;2023-02-02T09:13:05;101829.88;;;10.88;14.87
64115;BME280;62188;35.640;139.748;2023-02-02T09:15:30;101826.20;;;10.73;15.10
64115;BME280;62188;35.640;139.748;2023-02-02T09:17:56;101823.54;;;10.60;15.24
64115;BME280;62188;35.640;139.748;2023-02-02T09:20:21;101837.41;;;10.34;15.26
64115;BME280;62188;35.640;139.748;2023-02-02T09:22:47;101830.56;;;10.59;15.36
64115;BME280;62188;35.640;139.748;2023-02-02T09:25:13;101835.68;;;10.48;15.59
64115;BME280;62188;35.640;139.748;2023-02-02T09:27:39;101830.47;;;10.50;15.38
64115;BME280;62188;35.640;139.748;2023-02-02T09:30:06;101836.13;;;10.43;15.45
64115;BME280;62188;35.640;139.748;2023-02-02T09:32:30;101837.03;;;10.50;15.48
64115;BME280;62188;35.640;139.748;2023-02-02T09:34:56;101830.95;;;10.64;15.37
64115;BME280;62188;35.640;139.748;2023-02-02T09:37:22;101850.63;;;10.30;15.35
64115;BME280;62188;35.640;139.748;2023-02-02T09:39:48;101840.81;;;10.42;15.52
64115;BME280;62188;35.640;139.748;2023-02-02T09:42:25;101836.89;;;10.47;15.70
64115;BME280;62188;35.640;139.748;2023-02-02T09:44:49;101825.51;;;10.11;15.67
64115;BME280;62188;35.640;139.748;2023-02-02T09:47:13;101833.11;;;10.22;15.68
64115;BME280;62188;35.640;139.748;2023-02-02T09:49:36;101838.63;;;10.35;15.73
64115;BME280;62188;35.640;139.748;2023-02-02T09:52:01;101839.10;;;10.24;15.76
64115;BME280;62188;35.640;139.748;2023-02-02T09:54:26;101839.15;;;10.07;15.82
64115;BME280;62188;35.640;139.748;2023-02-02T09:56:54;101836.17;;;10.30;15.79
64115;BME280;62188;35.640;139.748;2023-02-02T09:59:18;101837.70;;;10.59;15.87
64115;BME280;62188;35.640;139.748;2023-02-02T10:01:41;101842.46;;;10.41;15.84
64115;BME280;62188;35.640;139.748;2023-02-02T10:04:12;101831.77;;;10.22;15.91
64115;BME280;62188;35.640;139.748;2023-02-02T10:06:37;101832.91;;;10.36;16.00
64115;BME280;62188;35.640;139.748;2023-02-02T10:09:06;101839.02;;;10.04;15.95
64115;BME280;62188;35.640;139.748;2023-02-02T10:11:31;101833.22;;;10.38;15.98
64115;BME280;62188;35.640;139.748;2023-02-02T10:13:52;101831.42;;;10.26;15.99
64115;BME280;62188;35.640;139.748;2023-02-02T10:16:17;101824.56;;;10.29;16.02
64115;BME280;62188;35.640;139.748;2023-02-02T10:18:45;101828.91;;;9.81;15.99
64115;BME280;62188;35.640;139.748;2023-02-02T10:21:11;101826.53;;;9.63;16.25
64115;BME280;62188;35.640;139.748;2023-02-02T10:23:35;101823.57;;;9.82;16.40
64115;BME280;62188;35.640;139.748;2023-02-02T10:26:01;101832.40;;;9.92;16.32
64115;BME280;62188;35.640;139.748;2023-02-02T10:30:57;101833.06;;;9.87;16.49
64115;BME280;62188;35.640;139.748;2023-02-02T10:33:23;101835.38;;;9.51;16.49
64115;BME280;62188;35.640;139.748;2023-02-02T10:35:44;101826.68;;;9.89;16.61
64115;BME280;62188;35.640;139.748;2023-02-02T10:38:15;101828.09;;;9.70;16.73
64115;BME280;62188;35.640;139.748;2023-02-02T10:40:41;101827.78;;;9.69;16.62
64115;BME280;62188;35.640;139.748;2023-02-02T10:45:24;101822.49;;;9.87;16.69
64115;BME280;62188;35.640;139.748;2023-02-02T10:47:50;101827.41;;;9.72;16.77
64115;BME280;62188;35.640;139.748;2023-02-02T10:50:19;101819.72;;;9.53;16.76
64115;BME280;62188;35.640;139.748;2023-02-02T10:52:45;101819.89;;;9.78;16.61
64115;BME280;62188;35.640;139.748;2023-02-02T10:55:15;101822.11;;;9.55;16.75
64115;BME280;62188;35.640;139.748;2023-02-02T10:57:46;101832.57;;;9.31;16.90
64115;BME280;62188;35.640;139.748;2023-02-02T11:00:04;101838.38;;;9.66;16.96
64115;BME280;62188;35.640;139.748;2023-02-02T11:02:25;101845.49;;;9.73;17.10
64115;BME280;62188;35.640;139.748;2023-02-02T11:04:51;101839.77;;;9.68;16.97
64115;BME280;62188;35.640;139.748;2023-02-02T11:07:17;101835.51;;;9.65;17.01
64115;BME280;62188;35.640;139.748;2023-02-02T11:09:42;101847.17;;;9.71;17.02
64115;BME280;62188;35.640;139.748;2023-02-02T11:12:15;101854.49;;;9.59;17.22
64115;BME280;62188;35.640;139.748;2023-02-02T11:14:41;101847.07;;;9.56;17.20
64115;BME280;62188;35.640;139.748;2023-02-02T11:17:02;101847.35;;;9.30;17.38
64115;BME280;62188;35.640;139.748;2023-02-02T11:19:29;101841.24;;;9.33;17.34
64115;BME280;62188;35.640;139.748;2023-02-02T11:21:53;101845.19;;;9.40;17.50
64115;BME280;62188;35.640;139.748;2023-02-02T11:24:22;101846.63;;;9.66;17.56
64115;BME280;62188;35.640;139.748;2023-02-02T11:26:47;101852.10;;;9.46;17.43
64115;BME280;62188;35.640;139.748;2023-02-02T11:29:14;101850.24;;;9.72;17.36
64115;BME280;62188;35.640;139.748;2023-02-02T11:31:36;101855.89;;;9.79;17.42
64115;BME280;62188;35.640;139.748;2023-02-02T11:34:13;101855.68;;;9.87;17.38
64115;BME280;62188;35.640;139.748;2023-02-02T11:36:26;101857.01;;;10.00;17.37
64115;BME280;62188;35.640;139.748;2023-02-02T11:41:18;101855.64;;;9.79;17.18
64115;BME280;62188;35.640;139.748;2023-02-02T11:43:48;101858.97;;;9.58;17.11
64115;BME280;62188;35.640;139.748;2023-02-02T11:46:16;101859.32;;;9.78;17.22
64115;BME280;62188;35.640;139.748;2023-02-02T11:48:37;101852.59;;;9.79;17.26
64115;BME280;62188;35.640;139.748;2023-02-02T11:51:01;101845.62;;;9.74;17.54
64115;BME280;62188;35.640;139.748;2023-02-02T11:53:29;101850.53;;;10.11;17.53
64115;BME280;62188;35.640;139.748;2023-02-02T11:55:53;101861.94;;;9.97;17.33
64115;BME280;62188;35.640;139.748;2023-02-02T11:58:24;101850.94;;;10.03;17.48
64115;BME280;62188;35.640;139.748;2023-02-02T12:00:48;101860.03;;;10.00;17.60
64115;BME280;62188;35.640;139.748;2023-02-02T12:03:22;101855.00;;;9.85;17.66
64115;BME280;62188;35.640;139.748;2023-02-02T12:05:37;101854.90;;;9.72;17.73
64115;BME280;62188;35.640;139.748;2023-02-02T12:08:02;101858.11;;;9.86;17.85
64115;BME280;62188;35.640;139.748;2023-02-02T12:10:30;101860.35;;;9.89;17.91
64115;BME280;62188;35.640;139.748;2023-02-02T12:12:58;101855.16;;;9.51;17.77
64115;BME280;62188;35.640;139.748;2023-02-02T12:15:27;101860.88;;;9.60;18.05
64115;BME280;62188;35.640;139.748;2023-02-02T12:17:45;101858.96;;;9.68;17.91
64115;BME280;62188;35.640;139.748;2023-02-02T12:20:20;101855.72;;;9.67;18.01
64115;BME280;62188;35.640;139.748;2023-02-02T12:22:50;101848.58;;;9.53;18.03
64115;BME280;62188;35.640;139.748;2023-02-02T12:25:08;101868.45;;;9.54;17.97
64115;BME280;62188;35.640;139.748;2023-02-02T12:27:36;101866.59;;;9.32;18.13
64115;BME280;62188;35.640;139.748;2023-02-02T12:30:06;101867.13;;;9.27;18.26
64115;BME280;62188;35.640;139.748;2023-02-02T12:32:27;101862.58;;;9.27;18.32
64115;BME280;62188;35.640;139.748;2023-02-02T12:34:56;101862.38;;;9.30;18.23